Time;durP1;ratioP1;P1;durP2;ratioP2;P2;SDS_P1;SDS_P2;PMS_P1;PMS_P2;Temp;Humidity;BMP_temperature;BMP_pressure;BME280_temperature;BME280_humidity;BME280_pressure;Samples;Min_cycle;Max_cycle;Signal;HPM_P1;HPM_P2
2023/11/12 00:00:48;;;;;;;16.20;14.53;;;;;;;;;;4923407;29;20238;-86
2023/11/12 00:03:16;;;;;;;16.30;14.60;;;;;;;;;;4925741;29;20222;-88
2023/11/12 00:05:42;;;;;;;15.67;14.33;;;;;;;;;;4903785;29;20215;-86
2023/11/12 00:08:07;;;;;;;15.33;13.83;;;;;;;;;;4910188;28;20274;-88
2023/11/12 00:10:34;;;;;;;14.90;13.47;;;;;;;;;;4910094;29;20276;-88
2023/11/12 00:13:00;;;;;;;13.10;11.73;;;;;;;;;;4926045;29;20636;-87
2023/11/12 00:15:26;;;;;;;14.77;13.00;;;;;;;;;;4918939;28;20219;-87
2023/11/12 00:17:51;;;;;;;14.03;12.77;;;;;;;;;;4934218;28;20226;-87
2023/11/12 00:20:19;;;;;;;14.33;12.97;;;;;;;;;;4946054;28;20613;-87
2023/11/12 00:22:46;;;;;;;13.60;12.20;;;;;;;;;;4930117;28;20218;-87
2023/11/12 00:25:16;;;;;;;14.87;13.57;;;;;;;;;;4965474;28;20223;-86
2023/11/12 00:27:41;;;;;;;14.20;12.70;;;;;;;;;;4931892;29;20311;-87
2023/11/12 00:30:08;;;;;;;13.43;12.37;;;;;;;;;;4939323;28;20271;-88
2023/11/12 00:32:34;;;;;;;18.07;12.57;;;;;;;;;;4946895;29;20231;-86
2023/11/12 00:35:05;;;;;;;14.37;13.17;;;;;;;;;;4937575;28;20227;-86
2023/11/12 00:37:30;;;;;;;15.60;13.37;;;;;;;;;;4926098;29;20265;-87
2023/11/12 00:39:56;;;;;;;14.67;13.37;;;;;;;;;;4954450;28;20226;-87
2023/11/12 00:42:26;;;;;;;15.90;12.97;;;;;;;;;;4941294;28;20614;-85
2023/11/12 00:44:53;;;;;;;17.67;14.30;;;;;;;;;;4960377;28;20223;-87
2023/11/12 00:47:19;;;;;;;15.97;14.47;;;;;;;;;;4946458;28;20227;-87
2023/11/12 00:49:44;;;;;;;14.63;13.40;;;;;;;;;;4953041;28;20230;-87
2023/11/12 00:52:10;;;;;;;16.80;14.73;;;;;;;;;;4944697;28;20234;-87
2023/11/12 00:54:38;;;;;;;15.23;13.73;;;;;;;;;;4927469;28;20238;-86
2023/11/12 00:57:06;;;;;;;15.90;14.33;;;;;;;;;;4964271;28;20214;-86
2023/11/12 00:59:31;;;;;;;15.07;13.77;;;;;;;;;;4946268;28;20250;-86
2023/11/12 01:01:57;;;;;;;16.17;14.80;;;;;;;;;;4921467;29;20222;-87
2023/11/12 01:04:24;;;;;;;14.23;12.87;;;;;;;;;;4954717;28;20231;-86
2023/11/12 01:06:50;;;;;;;14.80;13.50;;;;;;;;;;4928965;28;20230;-86
2023/11/12 01:09:15;;;;;;;14.63;13.23;;;;;;;;;;4949719;28;20219;-87
2023/11/12 01:11:41;;;;;;;14.97;13.67;;;;;;;;;;4915790;28;20302;-87
2023/11/12 01:14:15;;;;;;;16.27;14.80;;;;;;;;;;4959956;28;20283;-87
2023/11/12 01:16:40;;;;;;;15.23;13.93;;;;;;;;;;4968320;28;20257;-88
2023/11/12 01:19:08;;;;;;;16.00;14.43;;;;;;;;;;4948782;28;20210;-87
2023/11/12 01:21:36;;;;;;;15.97;14.57;;;;;;;;;;4913457;29;20230;-86
2023/11/12 01:24:04;;;;;;;16.00;14.30;;;;;;;;;;4923985;28;20219;-85
2023/11/12 01:26:34;;;;;;;17.00;15.30;;;;;;;;;;4964055;28;20207;-85
2023/11/12 01:28:59;;;;;;;15.63;14.30;;;;;;;;;;4947772;28;20237;-85
2023/11/12 01:31:27;;;;;;;17.53;16.03;;;;;;;;;;4954945;28;20238;-86
2023/11/12 01:33:53;;;;;;;16.67;15.20;;;;;;;;;;4948366;28;20223;-86
2023/11/12 01:36:19;;;;;;;16.97;15.47;;;;;;;;;;4980378;28;20285;-84
2023/11/12 01:38:47;;;;;;;19.00;16.27;;;;;;;;;;4950733;28;20260;-84
2023/11/12 01:41:16;;;;;;;17.73;16.00;;;;;;;;;;4958752;28;20534;-86
2023/11/12 01:43:44;;;;;;;18.40;16.73;;;;;;;;;;4944552;28;20250;-87
2023/11/12 01:46:09;;;;;;;19.50;17.80;;;;;;;;;;4954812;28;20242;-88
2023/11/12 01:48:38;;;;;;;20.93;18.73;;;;;;;;;;4932881;28;20346;-88
2023/11/12 01:51:09;;;;;;;21.43;19.50;;;;;;;;;;4968770;28;20225;-86
2023/11/12 01:53:37;;;;;;;21.93;19.67;;;;;;;;;;4948037;29;20389;-86
2023/11/12 01:56:03;;;;;;;22.40;20.03;;;;;;;;;;4942467;28;20241;-88
2023/11/12 01:58:30;;;;;;;22.30;20.30;;;;;;;;;;4921952;29;20346;-87
2023/11/12 02:00:57;;;;;;;24.00;21.47;;;;;;;;;;4929498;29;20223;-87
2023/11/12 02:03:23;;;;;;;24.13;21.83;;;;;;;;;;4941232;28;20226;-86
2023/11/12 02:05:52;;;;;;;24.50;22.03;;;;;;;;;;4938964;29;20311;-86
2023/11/12 02:08:21;;;;;;;24.07;21.03;;;;;;;;;;4922752;29;20223;-87
2023/11/12 02:10:50;;;;;;;24.67;22.27;;;;;;;;;;4931817;29;20229;-86
2023/11/12 02:13:17;;;;;;;24.70;22.27;;;;;;;;;;4913631;28;20227;-87
2023/11/12 02:15:44;;;;;;;24.23;21.73;;;;;;;;;;4928516;29;20231;-85
2023/11/12 02:18:13;;;;;;;24.77;22.13;;;;;;;;;;4922962;28;20591;-87
2023/11/12 02:20:48;;;;;;;24.23;21.90;;;;;;;;;;4911188;29;20499;-87
2023/11/12 02:23:15;;;;;;;26.90;23.60;;;;;;;;;;4922730;29;20227;-87
2023/11/12 02:25:44;;;;;;;25.83;23.30;;;;;;;;;;4921897;29;20266;-84
2023/11/12 02:28:10;;;;;;;25.57;23.17;;;;;;;;;;4908179;29;20270;-85
2023/11/12 02:30:40;;;;;;;24.03;21.57;;;;;;;;;;4918518;29;20241;-85
2023/11/12 02:33:06;;;;;;;25.17;22.53;;;;;;;;;;4940703;29;20266;-86
2023/11/12 02:35:32;;;;;;;25.80;23.17;;;;;;;;;;4907545;29;20302;-86
2023/11/12 02:37:58;;;;;;;26.07;23.30;;;;;;;;;;4919048;29;20275;-86
2023/11/12 02:40:24;;;;;;;25.33;22.90;;;;;;;;;;4925022;28;20223;-86
2023/11/12 02:42:52;;;;;;;25.70;23.17;;;;;;;;;;4927039;29;20638;-87
2023/11/12 02:45:21;;;;;;;26.43;23.83;;;;;;;;;;4945879;28;20225;-87
2023/11/12 02:47:46;;;;;;;25.33;23.10;;;;;;;;;;4932432;29;20604;-87
2023/11/12 02:50:27;;;;;;;25.53;23.20;;;;;;;;;;4904182;29;20235;-87
2023/11/12 02:52:53;;;;;;;27.67;24.90;;;;;;;;;;4946869;29;20207;-88
2023/11/12 02:55:21;;;;;;;26.63;24.00;;;;;;;;;;4929662;28;20235;-87
2023/11/12 02:57:47;;;;;;;26.70;24.20;;;;;;;;;;4959198;28;20233;-86
2023/11/12 03:00:15;;;;;;;25.90;23.47;;;;;;;;;;4957991;28;20219;-87
2023/11/12 03:02:44;;;;;;;26.07;23.37;;;;;;;;;;4919932;29;20250;-86
2023/11/12 03:05:09;;;;;;;26.90;24.60;;;;;;;;;;4945926;28;20219;-86
2023/11/12 03:07:37;;;;;;;26.43;23.93;;;;;;;;;;4922250;29;20580;-86
2023/11/12 03:10:03;;;;;;;27.60;25.00;;;;;;;;;;4913508;28;20253;-87
2023/11/12 03:12:29;;;;;;;26.90;24.20;;;;;;;;;;4940593;28;20679;-84
2023/11/12 03:14:54;;;;;;;26.20;23.80;;;;;;;;;;4951344;29;20273;-85
2023/11/12 03:17:23;;;;;;;26.97;24.37;;;;;;;;;;4926614;28;20225;-87
2023/11/12 03:19:53;;;;;;;28.00;25.17;;;;;;;;;;4960501;28;20215;-88
2023/11/12 03:22:18;;;;;;;28.90;25.77;;;;;;;;;;4936701;28;20219;-86
2023/11/12 03:24:46;;;;;;;28.77;25.87;;;;;;;;;;4928357;29;20736;-87
2023/11/12 03:27:17;;;;;;;28.30;25.53;;;;;;;;;;4931639;28;20254;-85
2023/11/12 03:29:47;;;;;;;29.30;26.57;;;;;;;;;;4943474;29;20230;-86
2023/11/12 03:32:13;;;;;;;30.30;27.23;;;;;;;;;;4930010;28;20327;-87
2023/11/12 03:34:41;;;;;;;29.53;26.80;;;;;;;;;;4933941;28;20229;-89
2023/11/12 03:37:10;;;;;;;31.17;27.87;;;;;;;;;;4964326;28;20268;-89
2023/11/12 03:39:35;;;;;;;29.37;26.57;;;;;;;;;;4943189;29;20219;-87
2023/11/12 03:42:01;;;;;;;27.87;25.17;;;;;;;;;;4952217;28;20613;-87
2023/11/12 03:44:31;;;;;;;29.10;26.40;;;;;;;;;;4941410;29;20234;-88
2023/11/12 03:46:59;;;;;;;30.67;27.60;;;;;;;;;;4910327;29;20882;-88
2023/11/12 03:49:25;;;;;;;29.60;26.80;;;;;;;;;;4904381;28;20841;-87
2023/11/12 03:51:52;;;;;;;30.70;26.80;;;;;;;;;;4950095;29;20227;-87
2023/11/12 03:54:17;;;;;;;30.20;27.47;;;;;;;;;;4920981;28;20629;-86
2023/11/12 03:56:45;;;;;;;29.57;26.87;;;;;;;;;;4922956;29;20238;-85
2023/11/12 04:02:57;;;;;;;30.13;27.03;;;;;;;;;;4966888;28;20244;-84
2023/11/12 04:05:26;;;;;;;33.10;29.97;;;;;;;;;;4964366;28;20691;-85
2023/11/12 04:07:52;;;;;;;32.57;29.50;;;;;;;;;;4939837;28;20213;-82
2023/11/12 04:10:17;;;;;;;32.97;29.53;;;;;;;;;;4946846;28;20219;-84
2023/11/12 04:12:47;;;;;;;32.47;29.53;;;;;;;;;;4901914;29;20239;-87
2023/11/12 04:15:15;;;;;;;35.17;31.77;;;;;;;;;;4914305;28;20290;-86
2023/11/12 04:17:43;;;;;;;33.50;30.10;;;;;;;;;;4923782;29;20239;-88
2023/11/12 04:20:11;;;;;;;34.20;30.90;;;;;;;;;;4898974;28;20271;-86
2023/11/12 04:22:37;;;;;;;35.47;31.80;;;;;;;;;;4923701;29;20241;-88
2023/11/12 04:25:05;;;;;;;36.37;32.60;;;;;;;;;;4910757;29;20692;-87
2023/11/12 04:27:49;;;;;;;35.47;31.77;;;;;;;;;;4944918;28;20218;-86
2023/11/12 04:30:15;;;;;;;36.83;32.87;;;;;;;;;;4929097;28;20230;-86
2023/11/12 04:32:45;;;;;;;34.63;31.33;;;;;;;;;;4940036;28;20231;-87
2023/11/12 04:35:11;;;;;;;36.70;33.10;;;;;;;;;;4929109;28;20231;-86
2023/11/12 04:37:40;;;;;;;35.70;32.27;;;;;;;;;;4942838;28;20790;-87
2023/11/12 04:40:10;;;;;;;37.67;33.83;;;;;;;;;;4943847;28;20241;-87
2023/11/12 04:42:37;;;;;;;37.00;33.40;;;;;;;;;;4960899;28;20277;-86
2023/11/12 04:45:06;;;;;;;37.60;33.90;;;;;;;;;;4942875;28;20214;-88
2023/11/12 04:47:34;;;;;;;37.53;33.60;;;;;;;;;;4959406;28;20273;-87
2023/11/12 04:50:00;;;;;;;39.37;35.33;;;;;;;;;;4959042;28;20230;-87
2023/11/12 04:52:28;;;;;;;38.53;34.60;;;;;;;;;;4943084;28;20218;-85
2023/11/12 04:54:53;;;;;;;37.67;33.93;;;;;;;;;;4944824;28;20221;-88
2023/11/12 04:57:23;;;;;;;37.67;33.70;;;;;;;;;;4944581;28;20235;-87
2023/11/12 04:59:51;;;;;;;36.40;32.73;;;;;;;;;;4935982;28;20243;-86
2023/11/12 05:02:17;;;;;;;41.27;37.17;;;;;;;;;;4958254;28;20230;-87
2023/11/12 05:04:45;;;;;;;40.97;36.43;;;;;;;;;;4953990;28;20222;-86
2023/11/12 05:07:14;;;;;;;38.77;34.93;;;;;;;;;;4943411;28;20258;-87
2023/11/12 05:09:40;;;;;;;41.87;37.30;;;;;;;;;;4945303;28;20719;-84
2023/11/12 05:12:06;;;;;;;40.40;36.03;;;;;;;;;;4943971;28;20217;-85
2023/11/12 05:14:31;;;;;;;40.43;36.13;;;;;;;;;;4944239;28;20222;-85
2023/11/12 05:16:56;;;;;;;41.33;36.87;;;;;;;;;;4941283;29;20298;-86
2023/11/12 05:19:29;;;;;;;41.33;35.57;;;;;;;;;;4928454;28;20223;-85
2023/11/12 05:21:54;;;;;;;40.47;36.37;;;;;;;;;;4936834;29;20226;-87
2023/11/12 05:24:20;;;;;;;40.37;35.63;;;;;;;;;;4955958;28;20949;-88
2023/11/12 05:26:48;;;;;;;38.33;34.50;;;;;;;;;;4919496;28;20325;-85
2023/11/12 05:29:15;;;;;;;38.00;34.23;;;;;;;;;;4944105;28;20622;-86
2023/11/12 05:31:41;;;;;;;36.87;33.00;;;;;;;;;;4946163;28;20261;-86
2023/11/12 05:34:06;;;;;;;38.63;34.50;;;;;;;;;;4923723;28;20210;-85
2023/11/12 05:36:32;;;;;;;38.47;34.47;;;;;;;;;;4942930;28;20232;-86
2023/11/12 05:38:58;;;;;;;38.43;33.63;;;;;;;;;;4932151;28;20221;-86
2023/11/12 05:41:24;;;;;;;39.93;35.47;;;;;;;;;;4959873;28;20245;-87
2023/11/12 05:43:52;;;;;;;46.37;36.97;;;;;;;;;;4926610;29;20218;-85
2023/11/12 05:46:18;;;;;;;42.40;36.73;;;;;;;;;;4939645;28;20253;-86
2023/11/12 05:48:43;;;;;;;38.27;34.27;;;;;;;;;;4944115;28;20244;-86
2023/11/12 05:51:09;;;;;;;39.27;35.07;;;;;;;;;;4939747;28;20311;-85
2023/11/12 05:53:39;;;;;;;40.07;35.77;;;;;;;;;;4942983;28;20656;-84
2023/11/12 05:56:05;;;;;;;38.57;34.40;;;;;;;;;;4943486;28;20214;-87
2023/11/12 05:58:30;;;;;;;39.73;35.60;;;;;;;;;;4933870;28;20254;-85
2023/11/12 06:01:01;;;;;;;40.50;35.07;;;;;;;;;;4940873;28;20226;-86
2023/11/12 06:03:27;;;;;;;42.27;35.57;;;;;;;;;;4948409;28;20312;-84
2023/11/12 06:05:52;;;;;;;43.90;36.47;;;;;;;;;;4947607;29;20700;-86
2023/11/12 06:08:18;;;;;;;41.13;36.57;;;;;;;;;;4924889;28;20265;-86
2023/11/12 06:10:43;;;;;;;47.77;38.47;;;;;;;;;;4942016;28;20256;-86
2023/11/12 06:13:14;;;;;;;46.63;38.53;;;;;;;;;;4916563;28;20304;-86
2023/11/12 06:15:43;;;;;;;49.40;38.40;;;;;;;;;;4948002;28;20238;-86
2023/11/12 06:18:09;;;;;;;42.83;36.87;;;;;;;;;;4956590;28;20237;-86
2023/11/12 06:20:37;;;;;;;45.00;37.73;;;;;;;;;;4945504;28;20230;-85
2023/11/12 06:23:03;;;;;;;43.73;38.30;;;;;;;;;;4959415;28;20218;-87
2023/11/12 06:25:28;;;;;;;48.97;37.63;;;;;;;;;;4941383;28;20610;-86
2023/11/12 06:27:56;;;;;;;43.40;37.77;;;;;;;;;;4923837;28;20643;-85
2023/11/12 06:30:24;;;;;;;49.17;39.23;;;;;;;;;;4942360;28;20297;-87
2023/11/12 06:32:51;;;;;;;46.40;37.10;;;;;;;;;;4943433;28;20477;-87
2023/11/12 06:35:21;;;;;;;48.30;39.27;;;;;;;;;;4935912;28;20627;-86
2023/11/12 06:37:49;;;;;;;41.63;36.40;;;;;;;;;;4949881;28;20237;-86
2023/11/12 06:40:14;;;;;;;50.33;38.33;;;;;;;;;;4929562;28;20235;-86
2023/11/12 06:42:41;;;;;;;50.50;37.10;;;;;;;;;;4941621;28;20226;-86
2023/11/12 06:45:07;;;;;;;43.40;37.03;;;;;;;;;;4938577;28;20227;-84
2023/11/12 06:47:33;;;;;;;44.73;37.37;;;;;;;;;;4959554;28;20229;-87
2023/11/12 06:50:07;;;;;;;44.60;36.90;;;;;;;;;;4931764;29;20226;-86
2023/11/12 06:52:35;;;;;;;43.57;36.87;;;;;;;;;;4950139;29;20226;-88
2023/11/12 06:55:03;;;;;;;45.30;37.83;;;;;;;;;;4918415;29;20260;-86
2023/11/12 06:57:32;;;;;;;46.97;36.70;;;;;;;;;;4954928;28;20252;-84
2023/11/12 06:59:59;;;;;;;41.13;35.17;;;;;;;;;;4939518;29;20222;-86
2023/11/12 07:02:27;;;;;;;47.50;37.70;;;;;;;;;;4936320;28;20226;-86
2023/11/12 07:04:56;;;;;;;45.73;37.07;;;;;;;;;;4929563;28;20242;-86
2023/11/12 07:07:21;;;;;;;44.43;35.70;;;;;;;;;;4945606;28;20280;-86
2023/11/12 07:09:54;;;;;;;46.13;37.03;;;;;;;;;;4926376;28;20218;-87
2023/11/12 07:12:19;;;;;;;45.13;36.00;;;;;;;;;;4959777;28;20313;-88
2023/11/12 07:14:49;;;;;;;51.57;37.40;;;;;;;;;;4951891;28;20233;-85
2023/11/12 07:17:18;;;;;;;47.67;35.67;;;;;;;;;;4957729;28;20246;-87
2023/11/12 07:19:45;;;;;;;47.07;37.13;;;;;;;;;;4954609;28;20285;-86
2023/11/12 07:22:13;;;;;;;44.07;35.73;;;;;;;;;;4944227;28;20227;-86
2023/11/12 07:24:41;;;;;;;45.30;36.40;;;;;;;;;;4953670;28;20221;-86
2023/11/12 07:27:13;;;;;;;47.30;36.73;;;;;;;;;;4945516;28;20254;-85
2023/11/12 07:29:38;;;;;;;45.50;37.57;;;;;;;;;;4966873;28;20226;-86
2023/11/12 07:32:08;;;;;;;42.80;35.23;;;;;;;;;;4966958;28;20214;-85
2023/11/12 07:34:34;;;;;;;42.87;35.93;;;;;;;;;;4959129;28;20230;-86
2023/11/12 07:36:59;;;;;;;50.30;36.00;;;;;;;;;;4951536;28;20230;-85
2023/11/12 07:39:25;;;;;;;48.03;35.37;;;;;;;;;;4939682;28;20217;-88
2023/11/12 07:41:51;;;;;;;49.73;36.70;;;;;;;;;;4966044;28;20297;-87
2023/11/12 07:44:22;;;;;;;41.13;35.57;;;;;;;;;;4941478;28;20283;-85
2023/11/12 07:46:48;;;;;;;43.67;36.47;;;;;;;;;;4961751;28;20276;-86
2023/11/12 07:49:13;;;;;;;48.67;36.17;;;;;;;;;;4961306;28;20242;-87
2023/11/12 07:51:41;;;;;;;47.00;37.13;;;;;;;;;;4954167;28;20233;-87
2023/11/12 07:54:11;;;;;;;42.97;36.10;;;;;;;;;;4966285;28;20310;-87
2023/11/12 07:56:39;;;;;;;47.23;36.93;;;;;;;;;;4976155;28;20260;-86
2023/11/12 07:59:08;;;;;;;49.27;37.43;;;;;;;;;;4948547;28;20214;-84
2023/11/12 08:01:33;;;;;;;48.20;36.40;;;;;;;;;;4965454;28;20653;-86
2023/11/12 08:04:01;;;;;;;48.37;37.90;;;;;;;;;;4962295;28;20210;-83
2023/11/12 08:06:27;;;;;;;48.57;37.47;;;;;;;;;;4961458;28;20222;-85
2023/11/12 08:08:58;;;;;;;49.13;38.93;;;;;;;;;;4948354;29;20222;-86
2023/11/12 08:11:28;;;;;;;50.53;40.80;;;;;;;;;;4950015;28;20235;-86
2023/11/12 08:13:53;;;;;;;50.70;41.23;;;;;;;;;;4958655;28;20234;-85
2023/11/12 08:16:20;;;;;;;51.53;39.20;;;;;;;;;;4963672;28;20233;-84
2023/11/12 08:18:45;;;;;;;51.93;39.67;;;;;;;;;;4971814;28;20248;-86
2023/11/12 08:21:12;;;;;;;51.03;41.47;;;;;;;;;;4958724;28;20222;-87
2023/11/12 08:23:40;;;;;;;55.23;43.20;;;;;;;;;;4969526;28;20214;-85
2023/11/12 08:26:05;;;;;;;56.20;40.97;;;;;;;;;;4950323;28;20233;-83
2023/11/12 08:28:34;;;;;;;53.93;40.70;;;;;;;;;;4984186;28;20206;-83
2023/11/12 08:31:02;;;;;;;64.77;46.13;;;;;;;;;;4954881;28;20221;-82
2023/11/12 08:33:30;;;;;;;59.97;45.37;;;;;;;;;;4959786;28;20219;-84
2023/11/12 08:35:55;;;;;;;62.73;46.50;;;;;;;;;;4965490;28;20214;-82
2023/11/12 08:38:21;;;;;;;58.70;43.57;;;;;;;;;;4974610;28;20259;-82
2023/11/12 08:40:46;;;;;;;53.60;42.70;;;;;;;;;;4978335;28;20245;-87
2023/11/12 08:43:14;;;;;;;56.00;43.93;;;;;;;;;;4963799;28;20234;-86
2023/11/12 08:45:44;;;;;;;55.53;42.93;;;;;;;;;;4951525;28;20210;-86
2023/11/12 08:48:15;;;;;;;51.83;42.93;;;;;;;;;;4942112;28;20230;-84
2023/11/12 08:50:40;;;;;;;51.50;41.67;;;;;;;;;;4984084;28;20292;-85
2023/11/12 08:53:07;;;;;;;53.87;43.20;;;;;;;;;;4967912;28;20667;-83
2023/11/12 08:55:32;;;;;;;52.47;44.07;;;;;;;;;;4956398;28;20225;-83
2023/11/12 08:57:58;;;;;;;52.77;44.00;;;;;;;;;;4932771;28;20214;-85
2023/11/12 09:00:23;;;;;;;56.77;45.83;;;;;;;;;;4939266;28;20955;-86
2023/11/12 09:02:49;;;;;;;53.07;44.17;;;;;;;;;;4958841;28;20237;-85
2023/11/12 09:05:19;;;;;;;54.87;43.93;;;;;;;;;;4933577;28;20231;-85
2023/11/12 09:07:47;;;;;;;54.33;43.37;;;;;;;;;;4941931;28;20230;-85
2023/11/12 09:10:13;;;;;;;48.50;42.53;;;;;;;;;;4953649;28;20218;-85
2023/11/12 09:12:39;;;;;;;55.07;44.10;;;;;;;;;;4948747;28;20234;-86
2023/11/12 09:15:05;;;;;;;49.20;42.97;;;;;;;;;;4955976;28;20231;-86
2023/11/12 09:17:31;;;;;;;50.40;41.67;;;;;;;;;;4970108;28;20226;-85
2023/11/12 09:20:03;;;;;;;49.23;42.63;;;;;;;;;;4926661;28;20753;-86
2023/11/12 09:22:29;;;;;;;49.20;41.80;;;;;;;;;;4955398;28;20256;-84
2023/11/12 09:24:55;;;;;;;46.07;40.70;;;;;;;;;;4931571;28;20230;-87
2023/11/12 09:27:21;;;;;;;46.57;41.63;;;;;;;;;;4961413;28;20222;-87
2023/11/12 09:29:47;;;;;;;46.77;38.67;;;;;;;;;;4944320;28;20257;-86
2023/11/12 09:32:14;;;;;;;45.80;39.37;;;;;;;;;;4941668;28;20218;-87
2023/11/12 09:34:42;;;;;;;42.33;37.90;;;;;;;;;;4910380;29;20226;-84
2023/11/12 09:37:08;;;;;;;42.07;37.67;;;;;;;;;;4925110;28;20235;-85
2023/11/12 09:39:33;;;;;;;42.07;37.47;;;;;;;;;;4921190;28;20251;-84
2023/11/12 09:41:59;;;;;;;39.17;34.90;;;;;;;;;;4928068;29;20246;-86
2023/11/12 09:44:26;;;;;;;41.20;36.07;;;;;;;;;;4954205;28;20226;-86
2023/11/12 09:47:37;;;;;;;39.03;34.70;;;;;;;;;;4934377;28;20222;-86
2023/11/12 09:50:06;;;;;;;36.73;32.87;;;;;;;;;;4930304;28;20321;-85
2023/11/12 09:52:31;;;;;;;36.07;32.27;;;;;;;;;;4937351;29;20215;-83
2023/11/12 09:54:58;;;;;;;32.27;29.07;;;;;;;;;;4924292;28;20250;-86
2023/11/12 09:57:27;;;;;;;33.33;29.53;;;;;;;;;;4939204;28;20310;-86
2023/11/12 09:59:53;;;;;;;33.37;28.73;;;;;;;;;;4954111;28;20234;-84
2023/11/12 10:02:21;;;;;;;32.30;29.17;;;;;;;;;;4964268;28;20277;-85
2023/11/12 10:04:59;;;;;;;29.77;26.90;;;;;;;;;;4945176;28;20218;-83
2023/11/12 10:07:25;;;;;;;28.80;25.83;;;;;;;;;;4953114;28;20274;-83
2023/11/12 10:09:54;;;;;;;30.10;26.43;;;;;;;;;;4958972;28;20227;-84
2023/11/12 10:12:20;;;;;;;28.63;25.73;;;;;;;;;;4922378;28;20241;-88
2023/11/12 10:14:48;;;;;;;26.83;24.10;;;;;;;;;;4941303;28;20241;-86
2023/11/12 10:17:18;;;;;;;26.70;24.07;;;;;;;;;;4928616;28;20324;-84
2023/11/12 10:19:56;;;;;;;26.27;23.70;;;;;;;;;;4942867;28;20230;-84
2023/11/12 10:22:39;;;;;;;27.13;24.33;;;;;;;;;;4929815;28;20214;-85
2023/11/12 10:25:07;;;;;;;28.27;25.30;;;;;;;;;;4951272;28;20697;-84
2023/11/12 10:27:37;;;;;;;26.57;23.90;;;;;;;;;;4905571;29;20308;-85
2023/11/12 10:30:16;;;;;;;27.40;24.67;;;;;;;;;;4931623;29;20246;-82
2023/11/12 10:32:42;;;;;;;26.73;24.23;;;;;;;;;;4947217;28;20226;-86
2023/11/12 10:35:10;;;;;;;25.97;23.40;;;;;;;;;;4940571;28;20222;-86
2023/11/12 10:37:59;;;;;;;26.83;24.27;;;;;;;;;;4959731;28;21183;-87
2023/11/12 10:40:25;;;;;;;26.47;23.90;;;;;;;;;;4957310;28;20238;-86
2023/11/12 10:42:58;;;;;;;24.87;22.37;;;;;;;;;;4971944;28;20223;-84
2023/11/12 10:45:29;;;;;;;27.03;24.50;;;;;;;;;;4959239;28;20229;-85
2023/11/12 10:47:57;;;;;;;26.07;23.57;;;;;;;;;;4953790;28;20222;-87
2023/11/12 10:50:26;;;;;;;26.77;24.00;;;;;;;;;;4932762;28;20223;-85
2023/11/12 10:52:52;;;;;;;26.30;23.53;;;;;;;;;;4934252;29;20230;-85
2023/11/12 10:55:17;;;;;;;29.77;22.63;;;;;;;;;;4922202;28;20232;-83
2023/11/12 10:57:46;;;;;;;26.93;23.10;;;;;;;;;;4953928;28;20233;-84
2023/11/12 11:00:13;;;;;;;25.47;22.60;;;;;;;;;;4933049;28;20397;-84
2023/11/12 11:02:39;;;;;;;24.23;22.00;;;;;;;;;;4906418;29;20237;-83
2023/11/12 11:05:07;;;;;;;23.27;20.80;;;;;;;;;;4958500;28;20226;-85
2023/11/12 11:07:34;;;;;;;24.83;22.17;;;;;;;;;;4925986;28;20222;-86
2023/11/12 11:09:59;;;;;;;22.10;19.93;;;;;;;;;;4940283;28;20350;-85
2023/11/12 11:12:25;;;;;;;22.93;20.80;;;;;;;;;;4931938;28;20582;-86
2023/11/12 11:14:51;;;;;;;24.37;21.67;;;;;;;;;;4934857;29;20228;-85
2023/11/12 11:17:37;;;;;;;23.80;20.90;;;;;;;;;;4969357;28;20240;-84
2023/11/12 11:20:06;;;;;;;23.37;21.00;;;;;;;;;;4936563;28;20226;-86
2023/11/12 11:22:34;;;;;;;22.47;20.47;;;;;;;;;;4937031;28;20222;-85
2023/11/12 11:25:19;;;;;;;22.50;20.17;;;;;;;;;;4906624;29;20305;-86
2023/11/12 11:27:50;;;;;;;22.73;20.60;;;;;;;;;;4955601;28;20221;-85
2023/11/12 11:30:18;;;;;;;22.07;19.87;;;;;;;;;;4936389;28;20222;-83
2023/11/12 11:32:59;;;;;;;22.27;20.00;;;;;;;;;;4922058;28;20219;-83
2023/11/12 11:35:25;;;;;;;22.70;20.37;;;;;;;;;;4952663;28;20230;-79
2023/11/12 11:38:12;;;;;;;22.37;20.17;;;;;;;;;;4941371;28;20248;-79
2023/11/12 11:40:43;;;;;;;21.87;19.60;;;;;;;;;;4974562;28;20770;-78
2023/11/12 11:43:23;;;;;;;20.93;18.93;;;;;;;;;;4976832;28;20226;-79
2023/11/12 11:46:08;;;;;;;21.00;19.00;;;;;;;;;;4958256;28;20732;-78
2023/11/12 11:48:36;;;;;;;19.70;17.83;;;;;;;;;;4970181;28;20222;-79
2023/11/12 11:51:28;;;;;;;21.63;19.27;;;;;;;;;;4959073;28;20230;-78
2023/11/12 11:53:55;;;;;;;21.20;19.27;;;;;;;;;;4968843;28;20325;-80
2023/11/12 11:56:23;;;;;;;21.27;19.20;;;;;;;;;;4926603;28;20281;-78
2023/11/12 11:58:52;;;;;;;20.27;18.27;;;;;;;;;;4939942;29;20705;-79
2023/11/12 12:01:17;;;;;;;20.67;18.60;;;;;;;;;;4954552;28;20222;-78
2023/11/12 12:03:43;;;;;;;19.83;17.93;;;;;;;;;;4936249;29;20226;-78
2023/11/12 12:06:18;;;;;;;19.10;17.40;;;;;;;;;;4949322;28;20218;-79
2023/11/12 12:09:02;;;;;;;19.17;17.33;;;;;;;;;;4967845;28;20244;-79
2023/11/12 12:11:28;;;;;;;18.83;17.03;;;;;;;;;;4947259;28;20762;-79
2023/11/12 12:14:04;;;;;;;18.40;16.80;;;;;;;;;;4965030;28;20235;-78
2023/11/12 12:16:35;;;;;;;18.40;16.70;;;;;;;;;;4949335;28;20221;-80
2023/11/12 12:19:01;;;;;;;19.20;17.20;;;;;;;;;;4952881;28;20253;-80
2023/11/12 12:21:27;;;;;;;18.83;17.00;;;;;;;;;;4935105;28;20699;-79
2023/11/12 12:23:52;;;;;;;20.43;18.43;;;;;;;;;;4947502;28;20218;-79
2023/11/12 12:26:24;;;;;;;18.03;16.10;;;;;;;;;;4969654;28;20222;-79
2023/11/12 12:28:50;;;;;;;17.70;16.10;;;;;;;;;;4941730;28;20233;-78
2023/11/12 12:31:16;;;;;;;20.13;16.97;;;;;;;;;;4955405;28;20229;-78
2023/11/12 12:34:00;;;;;;;17.07;15.47;;;;;;;;;;4962124;28;20234;-80
2023/11/12 12:36:26;;;;;;;16.83;15.33;;;;;;;;;;4944245;28;20229;-79
2023/11/12 12:38:58;;;;;;;17.77;16.27;;;;;;;;;;4950842;28;20222;-78
2023/11/12 12:41:25;;;;;;;16.27;14.73;;;;;;;;;;4965780;28;20234;-79
2023/11/12 12:43:52;;;;;;;18.90;16.10;;;;;;;;;;4942585;28;20250;-78
2023/11/12 12:46:18;;;;;;;17.47;15.77;;;;;;;;;;4949733;28;20321;-80
2023/11/12 12:48:54;;;;;;;17.50;15.87;;;;;;;;;;4955321;28;20660;-79
2023/11/12 12:51:24;;;;;;;16.63;14.97;;;;;;;;;;4957785;28;20222;-79
2023/11/12 12:53:51;;;;;;;21.47;15.87;;;;;;;;;;4955415;28;20230;-78
2023/11/12 12:56:18;;;;;;;18.63;16.93;;;;;;;;;;4953949;28;20221;-79
2023/11/12 12:58:46;;;;;;;15.90;14.30;;;;;;;;;;4958180;28;20229;-78
2023/11/12 13:01:14;;;;;;;18.00;15.97;;;;;;;;;;4956509;28;20715;-79
2023/11/12 13:03:46;;;;;;;15.27;13.87;;;;;;;;;;4955539;28;20296;-79
2023/11/12 13:06:14;;;;;;;16.57;15.03;;;;;;;;;;4943963;28;20273;-78
2023/11/12 13:08:47;;;;;;;15.63;14.03;;;;;;;;;;4980032;28;20261;-79
2023/11/12 13:11:16;;;;;;;17.20;15.60;;;;;;;;;;4979673;28;20252;-80
2023/11/12 13:13:44;;;;;;;16.33;14.67;;;;;;;;;;4967626;28;20226;-78
2023/11/12 13:16:13;;;;;;;18.10;16.30;;;;;;;;;;4964428;28;20759;-79
2023/11/12 13:18:40;;;;;;;20.87;16.40;;;;;;;;;;4954636;28;20588;-78
2023/11/12 13:21:06;;;;;;;24.77;20.50;;;;;;;;;;4940340;28;20647;-79
2023/11/12 13:23:33;;;;;;;34.77;29.40;;;;;;;;;;4939183;28;20214;-79
2023/11/12 13:26:00;;;;;;;20.60;18.47;;;;;;;;;;4942453;28;20230;-79
2023/11/12 13:28:26;;;;;;;20.97;18.50;;;;;;;;;;4970395;28;20281;-77
2023/11/12 13:30:54;;;;;;;19.37;17.37;;;;;;;;;;4958589;28;20308;-77
2023/11/12 13:33:20;;;;;;;16.70;15.00;;;;;;;;;;4957150;28;20309;-79
2023/11/12 13:35:46;;;;;;;16.73;14.80;;;;;;;;;;4956225;28;20246;-79
2023/11/12 13:38:12;;;;;;;15.73;14.13;;;;;;;;;;4948446;28;20230;-79
2023/11/12 13:40:39;;;;;;;21.80;18.20;;;;;;;;;;4949479;29;20775;-79
2023/11/12 13:43:05;;;;;;;17.50;15.70;;;;;;;;;;4956719;28;20217;-79
2023/11/12 13:45:32;;;;;;;16.50;15.00;;;;;;;;;;4957846;28;20245;-80
2023/11/12 13:48:00;;;;;;;16.30;14.83;;;;;;;;;;4954460;28;20301;-76
2023/11/12 13:50:27;;;;;;;20.47;18.53;;;;;;;;;;4965724;28;20242;-77
2023/11/12 13:52:58;;;;;;;17.63;15.83;;;;;;;;;;4950390;28;20301;-79
2023/11/12 13:55:29;;;;;;;18.53;15.40;;;;;;;;;;4926170;28;20229;-78
2023/11/12 13:57:55;;;;;;;22.70;18.17;;;;;;;;;;4984767;28;20275;-79
2023/11/12 14:00:27;;;;;;;17.93;16.13;;;;;;;;;;4931874;28;20230;-77
2023/11/12 14:02:56;;;;;;;16.00;14.50;;;;;;;;;;4966968;28;20211;-78
2023/11/12 14:05:26;;;;;;;15.10;13.70;;;;;;;;;;4968977;28;20222;-79
2023/11/12 14:07:54;;;;;;;15.70;14.20;;;;;;;;;;4968853;28;20226;-78
2023/11/12 14:10:22;;;;;;;15.10;13.60;;;;;;;;;;4953941;28;20867;-78
2023/11/12 14:12:50;;;;;;;15.37;13.77;;;;;;;;;;4922019;28;20280;-78
2023/11/12 14:15:18;;;;;;;14.63;13.33;;;;;;;;;;4970339;28;20698;-78
2023/11/12 14:17:44;;;;;;;18.27;13.57;;;;;;;;;;4949719;28;20214;-77
2023/11/12 14:20:10;;;;;;;14.23;12.90;;;;;;;;;;4955272;28;20222;-78
2023/11/12 14:22:41;;;;;;;13.07;11.83;;;;;;;;;;4938688;28;20218;-78
2023/11/12 14:25:10;;;;;;;15.40;12.40;;;;;;;;;;4951662;28;20238;-78